This is the latest recevied weather packets stored in our database for station/object KC5DAQ-27. If no packets are shown the sender has not sent any weather packets the latest 10 day(s).
| Time | Temp. | Humidity | Pressure | Rain* | Wind** | Luminosity | Snow |
|---|---|---|---|---|---|---|---|
| 1777313343 | 30° C | 77% | 1002.2 hPa | 0 mm | - | 506 W/m² | - |
| 1777313282 | 30° C | 78% | 1002.2 hPa | 0 mm | - | 426 W/m² | - |
| 1777313223 | 30° C | 78% | 1002.1 hPa | 0 mm | - | 373 W/m² | - |
| 1777313164 | 30° C | 78% | 1002.2 hPa | 0 mm | - | 368 W/m² | - |
| 1777313102 | 30° C | 77% | 1002.2 hPa | 0 mm | - | 410 W/m² | - |
| 1777313042 | 30° C | 77% | 1002.2 hPa | 0 mm | - | 455 W/m² | - |
| 1777312983 | 30° C | 77% | 1002.2 hPa | 0 mm | - | 448 W/m² | - |
| 1777312923 | 30° C | 78% | 1002.1 hPa | 0 mm | - | 721 W/m² | - |
| 1777312863 | 30° C | 78% | 1002.2 hPa | 0 mm | - | 802 W/m² | - |
| 1777312803 | 30° C | 78% | 1002.2 hPa | 0 mm | - | 902 W/m² | - |
| 1777312744 | 30° C | 78% | 1002.2 hPa | 0 mm | - | 1277 W/m² | - |
| 1777312682 | 30° C | 77% | 1002.2 hPa | 0 mm | - | 1083 W/m² | - |
| 1777312623 | 30° C | 78% | 1002.1 hPa | 0 mm | - | 638 W/m² | - |
| 1777312564 | 29.44° C | 78% | 1002.2 hPa | 0 mm | - | 1164 W/m² | - |
| 1777312503 | 29.44° C | 78% | 1002.3 hPa | 0 mm | - | 1139 W/m² | - |
| 1777312442 | 29.44° C | 78% | 1002.2 hPa | 0 mm | - | 1206 W/m² | - |
| 1777312382 | 29.44° C | 78% | 1002.2 hPa | 0 mm | - | 564 W/m² | - |
| 1777312323 | 30° C | 78% | 1002.2 hPa | 0 mm | - | 642 W/m² | - |
| 1777312263 | 30° C | 78% | 1002.4 hPa | 0 mm | - | 1243 W/m² | - |
| 1777312202 | 30° C | 80% | 1002.2 hPa | 0 mm | - | 496 W/m² | - |
| 1777312143 | 30° C | 79% | 1002.3 hPa | 0 mm | - | 1185 W/m² | - |
| 1777312084 | 30° C | 79% | 1002.3 hPa | 0 mm | - | 1268 W/m² | - |
| 1777312022 | 30° C | 79% | 1002.3 hPa | 0 mm | - | 538 W/m² | - |
| 1777311962 | 29.44° C | 79% | 1002.4 hPa | 0 mm | - | 1241 W/m² | - |
| 1777311904 | 30° C | 78% | 1002.4 hPa | 0 mm | - | 401 W/m² | - |
* Rain latest hour (hover to see other rain measurements)
** Current wind speed in m/s (hover to see current wind gust speed)